createdAt,value
2016-04-10T00:00:50.702Z,33
2016-04-10T00:01:51.813Z,33
2016-04-10T00:02:53.144Z,33
2016-04-10T00:03:54.350Z,33
2016-04-10T00:04:55.791Z,33
2016-04-10T00:05:57.105Z,33
2016-04-10T00:06:58.530Z,33
2016-04-10T00:07:59.642Z,33
2016-04-10T00:09:00.958Z,33
2016-04-10T00:10:02.272Z,33
2016-04-10T00:11:03.650Z,33
2016-04-10T00:12:04.668Z,33
2016-04-10T00:13:05.984Z,33
2016-04-10T00:14:07.299Z,33
2016-04-10T00:15:08.629Z,33
2016-04-10T00:16:09.946Z,33
2016-04-10T00:17:11.276Z,33
2016-04-10T00:18:12.715Z,33
2016-04-10T00:19:13.922Z,33
2016-04-10T00:20:15.237Z,33
2016-04-10T00:21:16.724Z,33
2016-04-10T00:22:17.664Z,33
2016-04-10T00:23:19.073Z,34
2016-04-10T00:24:20.528Z,33
2016-04-10T00:25:21.845Z,33
2016-04-10T00:26:23.284Z,34
2016-04-10T00:27:24.867Z,34
2016-04-10T00:28:26.495Z,34
2016-04-10T00:29:28.014Z,34
2016-04-10T00:30:29.469Z,34
2016-04-10T00:31:31.113Z,34
2016-04-10T00:33:33.806Z,34
2016-04-10T00:34:35.277Z,34
2016-04-10T00:35:36.842Z,33
2016-04-10T00:36:38.158Z,33
2016-04-10T00:37:39.488Z,33
2016-04-10T00:38:40.805Z,33
2016-04-10T00:39:42.244Z,33
2016-04-10T00:40:43.450Z,33
2016-04-10T00:41:44.937Z,33
2016-04-10T00:42:45.955Z,33
2016-04-10T00:43:47.161Z,33
2016-04-10T00:44:48.476Z,33
2016-04-10T00:45:49.807Z,33
2016-04-10T00:46:51.121Z,33
2016-04-10T00:47:52.593Z,33
2016-04-10T00:48:53.768Z,33
2016-04-10T00:49:55.084Z,33
2016-04-10T00:50:56.398Z,33
2016-04-10T00:51:57.901Z,33
2016-04-10T00:52:58.920Z,33
2016-04-10T00:54:00.110Z,33
2016-04-10T00:55:01.456Z,33
2016-04-10T00:56:02.881Z,33
2016-04-10T00:57:04.086Z,33
2016-04-10T00:58:05.511Z,33
2016-04-10T00:59:06.717Z,33
2016-04-10T01:00:08.047Z,33
2016-04-10T01:01:09.363Z,33
2016-04-10T01:02:10.850Z,33
2016-04-10T01:03:11.759Z,33
2016-04-10T01:04:13.075Z,33
2016-04-10T01:05:14.514Z,33
2016-04-10T01:06:15.856Z,33
2016-04-10T01:07:17.240Z,33
2016-04-10T01:08:18.472Z,33
2016-04-10T01:09:19.827Z,33
2016-04-10T01:10:21.182Z,33
2016-04-10T01:11:22.521Z,33
2016-04-10T01:12:24.053Z,33
2016-04-10T01:13:24.962Z,33
2016-04-10T01:14:26.418Z,33
2016-04-10T01:15:27.616Z,33
2016-04-10T01:16:28.952Z,33
2016-04-10T01:17:30.288Z,33
2016-04-10T01:18:31.733Z,34
2016-04-10T01:19:33.303Z,34
2016-04-10T01:20:34.762Z,34
2016-04-10T01:21:36.345Z,34
2016-04-10T01:22:37.990Z,34
2016-04-10T01:23:39.010Z,34
2016-04-10T01:24:40.593Z,34
2016-04-10T01:25:42.145Z,34
2016-04-10T01:26:43.725Z,33
2016-04-10T01:27:45.041Z,34
2016-04-10T01:28:46.733Z,33
2016-04-10T01:29:47.939Z,33
2016-04-10T01:30:49.255Z,33
2016-04-10T01:31:50.695Z,33
2016-04-10T01:32:52.073Z,33
2016-04-10T01:33:52.983Z,33
2016-04-10T01:34:54.329Z,33
2016-04-10T01:35:55.738Z,33
2016-04-10T01:36:56.929Z,33
2016-04-10T01:37:58.400Z,33
2016-04-10T01:38:59.700Z,33
2016-04-10T01:40:00.952Z,33
2016-04-10T01:41:02.346Z,33
2016-04-10T01:42:03.551Z,33
2016-04-10T01:43:04.929Z,33
2016-04-10T01:44:05.948Z,33
2016-04-10T01:45:07.278Z,33
2016-04-10T01:46:08.704Z,34
2016-04-10T01:47:10.159Z,34
2016-04-10T01:48:11.849Z,34
2016-04-10T01:49:13.306Z,34
2016-04-10T01:50:14.886Z,34
2016-04-10T01:51:16.498Z,34
2016-04-10T01:52:18.031Z,34
2016-04-10T01:53:19.706Z,34
2016-04-10T01:54:20.678Z,34
2016-04-10T01:55:18.461Z,34
2016-04-10T01:56:16.245Z,34
2016-04-10T01:57:13.998Z,34
2016-04-10T01:58:15.579Z,34
2016-04-10T01:59:13.363Z,34
2016-04-10T02:00:11.131Z,34
2016-04-10T02:01:08.900Z,34
2016-04-10T02:02:06.808Z,34
2016-04-10T02:03:04.530Z,34
2016-04-10T02:04:05.533Z,34
2016-04-10T02:05:03.348Z,34
2016-04-10T02:06:01.069Z,34
2016-04-10T02:06:58.837Z,34
2016-04-10T02:07:56.606Z,34
2016-04-10T02:08:54.391Z,34
2016-04-10T02:09:52.158Z,34
2016-04-10T02:10:49.943Z,34
2016-04-10T02:11:47.710Z,34
2016-04-10T02:12:45.557Z,34
2016-04-10T02:13:46.544Z,34
2016-04-10T02:14:44.312Z,34
2016-04-10T02:15:42.206Z,34
2016-04-10T02:16:39.990Z,34
2016-04-10T02:17:37.648Z,34
2016-04-10T02:18:35.418Z,34
2016-04-10T02:19:33.201Z,34
2016-04-10T02:20:30.970Z,34
2016-04-10T02:21:28.737Z,34
2016-04-10T02:23:27.584Z,34
2016-04-10T02:24:25.493Z,34
2016-04-10T02:25:23.245Z,34
2016-04-10T02:26:20.905Z,34
2016-04-10T02:27:18.672Z,34
2016-04-10T02:28:16.472Z,34
2016-04-10T02:29:14.241Z,34
2016-04-10T02:30:12.009Z,34
2016-04-10T02:31:09.778Z,34
2016-04-10T02:32:07.608Z,34
2016-04-10T02:33:08.610Z,34
2016-04-10T02:34:06.395Z,34
2016-04-10T02:35:04.163Z,34
2016-04-10T02:36:01.947Z,34
2016-04-10T02:36:59.730Z,34
2016-04-10T02:37:57.593Z,34
2016-04-10T02:38:55.268Z,34
2016-04-10T02:39:53.051Z,34
2016-04-10T02:40:50.929Z,34
2016-04-10T02:41:48.635Z,34
2016-04-10T02:42:49.654Z,34
2016-04-10T02:43:47.422Z,34
2016-04-10T02:44:45.315Z,34
2016-04-10T02:45:43.115Z,34
2016-04-10T02:46:40.757Z,34
2016-04-10T02:47:38.557Z,34
2016-04-10T02:48:36.420Z,34
2016-04-10T02:49:34.203Z,34
2016-04-10T02:50:31.847Z,34
2016-04-10T02:51:29.708Z,34
2016-04-10T02:52:30.805Z,34
2016-04-10T02:53:28.461Z,34
2016-04-10T02:54:26.355Z,34
2016-04-10T02:55:24.029Z,34
2016-04-10T02:56:21.907Z,34
2016-04-10T02:57:19.613Z,34
2016-04-10T02:58:17.287Z,34
2016-04-10T02:59:15.228Z,34
2016-04-10T03:00:13.011Z,34
2016-04-10T03:01:10.842Z,34
2016-04-10T03:02:11.735Z,34
2016-04-10T03:03:09.504Z,34
2016-04-10T03:04:07.273Z,34
2016-04-10T03:05:05.056Z,34
2016-04-10T03:06:02.949Z,34
2016-04-10T03:07:00.593Z,34
2016-04-10T03:07:58.611Z,34
2016-04-10T03:08:56.289Z,34
2016-04-10T03:09:54.041Z,35
2016-04-10T03:10:52.044Z,35
2016-04-10T03:11:53.031Z,35
2016-04-10T03:12:51.049Z,35
2016-04-10T03:13:49.083Z,35
2016-04-10T03:14:47.101Z,34
2016-04-10T03:15:44.995Z,35
2016-04-10T03:16:42.904Z,35
2016-04-10T03:17:41.047Z,34
2016-04-10T03:18:38.707Z,34
2016-04-10T03:19:36.506Z,34
2016-04-10T03:20:34.321Z,34
2016-04-10T03:21:35.355Z,34
2016-04-10T03:22:33.123Z,34
2016-04-10T03:23:31.001Z,34
2016-04-10T03:24:28.673Z,34
2016-04-10T03:25:26.550Z,34
2016-04-10T03:26:24.194Z,34
2016-04-10T03:27:21.978Z,34
2016-04-10T03:28:19.746Z,34
2016-04-10T03:29:17.656Z,34
2016-04-10T03:30:15.361Z,34
2016-04-10T03:31:16.489Z,34
2016-04-10T03:32:14.257Z,34
2016-04-10T03:33:11.916Z,34
2016-04-10T03:34:09.809Z,34
2016-04-10T03:35:07.577Z,34
2016-04-10T03:36:05.345Z,34
2016-04-10T03:37:03.020Z,34
2016-04-10T03:38:00.819Z,34
2016-04-10T03:38:58.573Z,34
2016-04-10T03:39:56.388Z,34
2016-04-10T03:40:57.438Z,34
2016-04-10T03:41:55.175Z,34
2016-04-10T03:42:52.958Z,34
2016-04-10T03:43:50.774Z,34
2016-04-10T03:44:48.619Z,35
2016-04-10T03:45:46.513Z,34
2016-04-10T03:46:44.297Z,34
2016-04-10T03:47:42.082Z,35
2016-04-10T03:48:40.100Z,35
2016-04-10T03:49:38.179Z,34
2016-04-10T03:50:39.324Z,35
2016-04-10T03:51:37.233Z,35
2016-04-10T03:52:35.266Z,35
2016-04-10T03:53:33.285Z,35
2016-04-10T03:54:31.334Z,35
2016-04-10T03:55:29.334Z,34
2016-04-10T03:56:27.118Z,34
2016-04-10T03:57:24.871Z,35
2016-04-10T03:58:23.030Z,35
2016-04-10T03:59:21.001Z,35
2016-04-10T04:00:22.034Z,35
2016-04-10T04:01:20.022Z,35
2016-04-10T04:02:18.057Z,35
2016-04-10T04:03:16.090Z,35
2016-04-10T04:04:14.250Z,35
2016-04-10T04:05:12.252Z,35
2016-04-10T04:06:10.161Z,35
2016-04-10T04:07:08.211Z,35
2016-04-10T04:08:06.353Z,35
2016-04-10T04:09:04.309Z,35
2016-04-10T04:10:05.312Z,35
2016-04-10T04:11:03.456Z,35
2016-04-10T04:12:01.381Z,35
2016-04-10T04:12:59.399Z,35
2016-04-10T04:13:57.558Z,35
2016-04-10T04:14:55.700Z,35
2016-04-10T04:15:53.735Z,35
2016-04-10T04:16:51.769Z,35
2016-04-10T04:17:50.052Z,35
2016-04-10T04:18:48.383Z,35
2016-04-10T04:19:49.401Z,35
2016-04-10T04:20:47.826Z,35
2016-04-10T04:21:45.969Z,35
2016-04-10T04:22:44.254Z,35
2016-04-10T04:23:42.538Z,35
2016-04-10T04:25:39.090Z,35
2016-04-10T04:26:37.374Z,35
2016-04-10T04:27:35.798Z,35
2016-04-10T04:28:34.113Z,35
2016-04-10T04:29:35.007Z,35
2016-04-10T04:30:33.415Z,35
2016-04-10T04:31:31.606Z,35
2016-04-10T04:32:29.840Z,35
2016-04-10T04:33:28.140Z,35
2016-04-10T04:34:26.518Z,35
2016-04-10T04:35:24.817Z,35
2016-04-10T04:36:22.976Z,35
2016-04-10T04:37:21.369Z,35
2016-04-10T04:38:19.591Z,35
2016-04-10T04:39:20.625Z,35
2016-04-10T04:40:18.924Z,35
2016-04-10T04:41:17.161Z,35
2016-04-10T04:42:15.555Z,35
2016-04-10T04:43:13.855Z,35
2016-04-10T04:44:12.013Z,35
2016-04-10T04:45:10.312Z,35
2016-04-10T04:46:08.706Z,35
2016-04-10T04:47:06.880Z,35
2016-04-10T04:48:05.195Z,35
2016-04-10T04:49:06.214Z,35
2016-04-10T04:50:04.596Z,35
2016-04-10T04:51:02.787Z,35
2016-04-10T04:52:01.165Z,35
2016-04-10T04:52:59.354Z,35
2016-04-10T04:53:57.607Z,35
2016-04-10T04:54:55.891Z,35
2016-04-10T04:55:54.176Z,35
2016-04-10T04:56:52.459Z,35
2016-04-10T04:57:50.914Z,35
2016-04-10T04:58:51.809Z,35
2016-04-10T04:59:50.092Z,35
2016-04-10T05:00:48.375Z,35
2016-04-10T05:01:46.801Z,35
2016-04-10T05:02:44.944Z,35
2016-04-10T05:03:43.228Z,35
2016-04-10T05:04:41.528Z,35
2016-04-10T05:05:39.780Z,35
2016-04-10T05:06:38.064Z,35
2016-04-10T05:07:36.536Z,35
2016-04-10T05:08:37.413Z,35
2016-04-10T05:09:35.806Z,35
2016-04-10T05:10:34.028Z,35
2016-04-10T05:11:32.263Z,35
2016-04-10T05:12:30.655Z,35
2016-04-10T05:13:28.847Z,35
2016-04-10T05:14:27.224Z,35
2016-04-10T05:15:25.492Z,35
2016-04-10T05:16:23.666Z,35
2016-04-10T05:17:22.013Z,35
2016-04-10T05:19:21.316Z,35
2016-04-10T05:20:19.568Z,35
2016-04-10T05:21:17.851Z,35
2016-04-10T05:22:16.261Z,35
2016-04-10T05:23:14.435Z,35
2016-04-10T05:24:12.703Z,35
2016-04-10T05:25:10.972Z,35
2016-04-10T05:26:09.287Z,35
2016-04-10T05:27:07.602Z,35
2016-04-10T05:28:08.620Z,35
2016-04-10T05:29:06.904Z,35
2016-04-10T05:30:05.173Z,35
2016-04-10T05:31:03.456Z,35
2016-04-10T05:32:01.756Z,35
2016-04-10T05:33:00.025Z,35
2016-04-10T05:33:58.292Z,35
2016-04-10T05:34:56.578Z,35
2016-04-10T05:35:54.892Z,35
2016-04-10T05:36:53.316Z,35
2016-04-10T05:37:54.211Z,35
2016-04-10T05:38:52.494Z,35
2016-04-10T05:39:50.777Z,35
2016-04-10T05:40:49.047Z,35
2016-04-10T05:41:47.377Z,35
2016-04-10T05:42:45.614Z,35
2016-04-10T05:43:43.898Z,35
2016-04-10T05:44:42.213Z,35
2016-04-10T05:45:40.466Z,35
2016-04-10T05:46:38.921Z,35
2016-04-10T05:47:39.924Z,35
2016-04-10T05:48:38.240Z,35
2016-04-10T05:49:36.508Z,35
2016-04-10T05:50:34.777Z,35
2016-04-10T05:51:33.060Z,35
2016-04-10T05:52:31.216Z,35
2016-04-10T05:53:29.469Z,35
2016-04-10T05:54:27.799Z,35
2016-04-10T05:55:26.177Z,35
2016-04-10T05:56:24.415Z,35
2016-04-10T05:57:25.432Z,35
2016-04-10T05:58:23.686Z,35
2016-04-10T05:59:22.001Z,35
2016-04-10T06:00:20.253Z,35
2016-04-10T06:01:18.647Z,35
2016-04-10T06:02:17.056Z,35
2016-04-10T06:03:15.089Z,35
2016-04-10T06:04:13.373Z,35
2016-04-10T06:05:11.673Z,35
2016-04-10T06:06:10.004Z,35
2016-04-10T06:07:11.006Z,35
2016-04-10T06:08:09.306Z,35
2016-04-10T06:09:07.700Z,35
2016-04-10T06:10:05.967Z,35
2016-04-10T06:11:04.142Z,35
2016-04-10T06:12:02.442Z,35
2016-04-10T06:13:00.710Z,35
2016-04-10T06:13:58.979Z,35
2016-04-10T06:14:57.419Z,35
2016-04-10T06:15:55.593Z,35
2016-04-10T06:16:56.611Z,35
2016-04-10T06:17:55.021Z,35
2016-04-10T06:18:53.288Z,35
2016-04-10T06:19:51.463Z,35
2016-04-10T06:20:49.779Z,35
2016-04-10T06:21:48.016Z,35
2016-04-10T06:22:46.304Z,35
2016-04-10T06:23:44.764Z,35
2016-04-10T06:24:42.975Z,35
2016-04-10T06:25:41.203Z,35
2016-04-10T06:26:42.288Z,35
2016-04-10T06:27:40.478Z,35
2016-04-10T06:28:38.762Z,35
2016-04-10T06:29:37.046Z,35
2016-04-10T06:30:35.330Z,35
2016-04-10T06:31:33.721Z,36
2016-04-10T06:32:32.145Z,35
2016-04-10T06:33:30.570Z,35
2016-04-10T06:34:28.698Z,35
2016-04-10T06:35:27.044Z,36
2016-04-10T06:36:28.078Z,35
2016-04-10T06:37:26.471Z,36
2016-04-10T06:38:24.834Z,36
2016-04-10T06:39:23.398Z,36
2016-04-10T06:40:21.931Z,36
2016-04-10T06:41:20.467Z,36
2016-04-10T06:42:19.015Z,36
2016-04-10T06:43:17.534Z,36
2016-04-10T06:44:16.084Z,36
2016-04-10T06:45:14.695Z,36
2016-04-10T06:46:15.667Z,36
2016-04-10T06:47:14.217Z,36
2016-04-10T06:48:12.860Z,36
2016-04-10T06:49:11.269Z,36
2016-04-10T06:50:09.803Z,36
2016-04-10T06:51:08.337Z,36
2016-04-10T06:52:06.980Z,36
2016-04-10T06:53:05.420Z,36
2016-04-10T06:54:03.939Z,36
2016-04-10T06:55:02.472Z,35
2016-04-10T06:56:03.538Z,36
2016-04-10T06:57:02.102Z,36
2016-04-10T06:58:00.622Z,36
2016-04-10T06:58:59.186Z,36
2016-04-10T06:59:57.673Z,36
2016-04-10T07:00:56.224Z,36
2016-04-10T07:01:54.882Z,36
2016-04-10T07:02:53.306Z,36
2016-04-10T07:03:51.935Z,36
2016-04-10T07:04:50.407Z,36
2016-04-10T07:05:51.784Z,36
2016-04-10T07:06:49.942Z,36
2016-04-10T07:07:48.508Z,36
2016-04-10T07:08:47.057Z,36
2016-04-10T07:09:45.544Z,36
2016-04-10T07:10:44.078Z,36
2016-04-10T07:11:42.612Z,36
2016-04-10T07:12:41.270Z,36
2016-04-10T07:13:39.712Z,36
2016-04-10T07:14:38.276Z,36
2016-04-10T07:15:39.279Z,36
2016-04-10T07:16:37.938Z,36
2016-04-10T07:17:36.347Z,36
2016-04-10T07:18:34.881Z,36
2016-04-10T07:19:33.444Z,36
2016-04-10T07:20:31.992Z,36
2016-04-10T07:21:30.620Z,36
2016-04-10T07:22:29.030Z,35
2016-04-10T07:23:27.313Z,36
2016-04-10T07:24:25.895Z,36
2016-04-10T07:25:26.913Z,36
2016-04-10T07:26:25.588Z,36
2016-04-10T07:27:23.980Z,35
2016-04-10T07:28:22.374Z,36
2016-04-10T07:29:20.799Z,36
2016-04-10T07:30:19.332Z,36
2016-04-10T07:31:17.866Z,36
2016-04-10T07:32:16.525Z,36
2016-04-10T07:33:14.527Z,36
2016-04-10T07:34:13.578Z,36
2016-04-10T07:35:14.533Z,35
2016-04-10T07:36:12.849Z,35
2016-04-10T07:37:11.101Z,36
2016-04-10T07:38:09.651Z,35
2016-04-10T07:39:07.872Z,35
2016-04-10T07:40:06.625Z,36
2016-04-10T07:41:04.736Z,36
2016-04-10T07:42:03.302Z,36
2016-04-10T07:43:01.820Z,36
2016-04-10T07:44:00.401Z,36
2016-04-10T07:45:01.467Z,36
2016-04-10T07:46:00.062Z,36
2016-04-10T07:46:58.597Z,36
2016-04-10T07:47:57.131Z,36
2016-04-10T07:48:55.540Z,36
2016-04-10T07:49:54.230Z,36
2016-04-10T07:50:52.622Z,36
2016-04-10T07:51:51.157Z,36
2016-04-10T07:52:49.675Z,35
2016-04-10T07:53:48.178Z,35
2016-04-10T07:54:49.150Z,36
2016-04-10T07:55:47.699Z,36
2016-04-10T07:56:46.108Z,35
2016-04-10T07:57:44.392Z,36
2016-04-10T07:58:42.926Z,35
2016-04-10T07:59:41.210Z,35
2016-04-10T08:00:39.478Z,35
2016-04-10T08:01:37.793Z,35
2016-04-10T08:02:36.047Z,35
2016-04-10T08:03:34.406Z,36
2016-04-10T08:04:35.396Z,36
2016-04-10T08:05:34.052Z,35
2016-04-10T08:06:32.210Z,35
2016-04-10T08:07:30.479Z,35
2016-04-10T08:08:28.887Z,35
2016-04-10T08:09:27.046Z,35
2016-04-10T08:10:25.456Z,35
2016-04-10T08:11:23.598Z,35
2016-04-10T08:12:22.008Z,35
2016-04-10T08:13:20.229Z,35
2016-04-10T08:14:21.231Z,35
2016-04-10T08:15:19.532Z,35
2016-04-10T08:16:17.800Z,35
2016-04-10T08:17:16.099Z,35
2016-04-10T08:18:14.352Z,35
2016-04-10T08:19:12.667Z,36
2016-04-10T08:20:11.404Z,35
2016-04-10T08:21:09.579Z,35
2016-04-10T08:22:07.738Z,36
2016-04-10T08:23:06.350Z,36
2016-04-10T08:24:07.461Z,36
2016-04-10T08:25:05.871Z,36
2016-04-10T08:26:04.544Z,36
2016-04-10T08:27:02.939Z,36
2016-04-10T08:28:01.504Z,36
2016-04-10T08:29:00.147Z,36
2016-04-10T08:29:58.556Z,36
2016-04-10T08:30:57.199Z,36
2016-04-10T08:31:55.608Z,36
2016-04-10T08:32:54.205Z,36
2016-04-10T08:33:55.223Z,36
2016-04-10T08:34:53.866Z,36
2016-04-10T08:35:52.401Z,36
2016-04-10T08:36:50.824Z,36
2016-04-10T08:37:49.344Z,36
2016-04-10T08:38:47.893Z,36
2016-04-10T08:39:46.411Z,36
2016-04-10T08:40:45.211Z,36
2016-04-10T08:41:43.995Z,36
2016-04-10T08:42:42.840Z,36
2016-04-10T08:43:43.860Z,36
2016-04-10T08:44:42.643Z,36
2016-04-10T08:45:41.553Z,36
2016-04-10T08:46:40.071Z,36
2016-04-10T08:47:38.511Z,36
2016-04-10T08:48:37.044Z,36
2016-04-10T08:49:35.575Z,36
2016-04-10T08:50:34.204Z,36
2016-04-10T08:51:32.659Z,36
2016-04-10T08:52:31.224Z,36
2016-04-10T08:53:32.352Z,36
2016-04-10T08:54:30.761Z,36
2016-04-10T08:55:29.327Z,36
2016-04-10T08:56:27.954Z,36
2016-04-10T08:57:26.379Z,36
2016-04-10T08:58:24.491Z,36
2016-04-10T08:59:23.571Z,36
2016-04-10T09:00:22.106Z,36
2016-04-10T09:01:20.624Z,36
2016-04-10T09:02:19.111Z,36
2016-04-10T09:03:20.113Z,36
2016-04-10T09:04:18.647Z,36
2016-04-10T09:05:17.197Z,36
2016-04-10T09:06:15.652Z,36
2016-04-10T09:07:14.249Z,36
2016-04-10T09:08:12.783Z,36
2016-04-10T09:09:11.504Z,36
2016-04-10T09:10:09.883Z,36
2016-04-10T09:11:08.385Z,36
2016-04-10T09:12:06.981Z,36
2016-04-10T09:13:07.984Z,36
2016-04-10T09:14:06.518Z,36
2016-04-10T09:15:05.068Z,36
2016-04-10T09:16:03.586Z,36
2016-04-10T09:17:02.245Z,36
2016-04-10T09:18:00.654Z,36
2016-04-10T09:18:59.203Z,36
2016-04-10T09:19:57.753Z,36
2016-04-10T09:20:56.271Z,36
2016-04-10T09:21:54.853Z,36
2016-04-10T09:22:55.870Z,36
2016-04-10T09:23:54.405Z,36
2016-04-10T09:24:52.954Z,36
2016-04-10T09:25:51.488Z,36
2016-04-10T09:26:50.006Z,36
2016-04-10T09:27:48.665Z,36
2016-04-10T09:28:47.074Z,36
2016-04-10T09:29:45.608Z,36
2016-04-10T09:30:44.142Z,35
2016-04-10T09:31:42.629Z,35
2016-04-10T09:32:43.491Z,35
2016-04-10T09:33:41.775Z,35
2016-04-10T09:34:40.168Z,35
2016-04-10T09:35:38.327Z,35
2016-04-10T09:36:36.624Z,35
2016-04-10T09:37:34.893Z,35
2016-04-10T09:38:33.193Z,35
2016-04-10T09:39:31.460Z,35
2016-04-10T09:40:29.729Z,35
2016-04-10T09:41:28.185Z,35
2016-04-10T09:42:29.203Z,35
2016-04-10T09:43:27.362Z,35
2016-04-10T09:44:25.787Z,35
2016-04-10T09:45:23.929Z,35
2016-04-10T09:46:22.214Z,35
2016-04-10T09:47:20.482Z,35
2016-04-10T09:48:18.765Z,35
2016-04-10T09:49:17.034Z,35
2016-04-10T09:50:15.334Z,35
2016-04-10T09:51:13.821Z,35
2016-04-10T09:52:14.683Z,35
2016-04-10T09:53:12.951Z,36
2016-04-10T09:54:11.594Z,35
2016-04-10T09:55:09.769Z,36
2016-04-10T09:56:08.428Z,36
2016-04-10T09:57:06.947Z,36
2016-04-10T09:58:05.497Z,35
2016-04-10T09:59:03.655Z,35
2016-04-10T10:00:01.955Z,35
2016-04-10T10:01:00.379Z,35
2016-04-10T10:02:01.288Z,35
2016-04-10T10:02:59.556Z,35
2016-04-10T10:03:57.840Z,35
2016-04-10T10:04:56.124Z,35
2016-04-10T10:05:54.518Z,35
2016-04-10T10:06:52.692Z,35
2016-04-10T10:07:50.961Z,35
2016-04-10T10:08:49.233Z,35
2016-04-10T10:09:47.532Z,35
2016-04-10T10:10:45.864Z,36
2016-04-10T10:11:47.021Z,36
2016-04-10T10:12:45.472Z,36
2016-04-10T10:13:44.047Z,36
2016-04-10T10:14:42.623Z,36
2016-04-10T10:15:41.590Z,36
2016-04-10T10:16:40.304Z,36
2016-04-10T10:17:39.103Z,36
2016-04-10T10:18:37.853Z,36
2016-04-10T10:19:36.668Z,36
2016-04-10T10:20:35.545Z,36
2016-04-10T10:21:36.532Z,36
2016-04-10T10:22:35.341Z,36
2016-04-10T10:23:34.130Z,36
2016-04-10T10:24:32.919Z,36
2016-04-10T10:25:31.834Z,36
2016-04-10T10:26:30.513Z,36
2016-04-10T10:27:29.315Z,36
2016-04-10T10:28:28.086Z,36
2016-04-10T10:29:26.872Z,36
2016-04-10T10:30:25.314Z,36
2016-04-10T10:31:26.741Z,36
2016-04-10T10:32:25.526Z,36
2016-04-10T10:33:24.311Z,36
2016-04-10T10:34:23.111Z,36
2016-04-10T10:35:21.739Z,35
2016-04-10T10:36:20.009Z,34
2016-04-10T10:37:17.777Z,34
2016-04-10T10:38:15.452Z,34
2016-04-10T10:39:13.439Z,34
2016-04-10T10:40:11.052Z,34
2016-04-10T10:41:12.055Z,34
2016-04-10T10:42:13.652Z,34
2016-04-10T10:43:15.247Z,34
2016-04-10T10:44:13.000Z,34
2016-04-10T10:45:10.785Z,34
2016-04-10T10:46:08.663Z,34
2016-04-10T10:47:06.431Z,34
2016-04-10T10:48:08.011Z,34
2016-04-10T10:49:09.467Z,34
2016-04-10T10:50:11.219Z,34
2016-04-10T10:51:12.097Z,34
2016-04-10T10:52:13.679Z,33
2016-04-10T10:53:15.102Z,33
2016-04-10T10:54:16.496Z,33
2016-04-10T10:55:17.623Z,33
2016-04-10T10:56:18.970Z,33
2016-04-10T10:57:20.395Z,33
2016-04-10T10:58:21.725Z,33
2016-04-10T10:59:22.900Z,33
2016-04-10T11:00:24.278Z,33
2016-04-10T11:01:25.296Z,33
2016-04-10T11:02:26.659Z,33
2016-04-10T11:03:27.942Z,33
2016-04-10T11:04:29.382Z,33
2016-04-10T11:05:30.589Z,34
2016-04-10T11:06:32.153Z,34
2016-04-10T11:07:33.734Z,34
2016-04-10T11:08:35.425Z,34
2016-04-10T11:09:36.881Z,34
2016-04-10T11:10:34.696Z,34
2016-04-10T11:11:35.855Z,34
2016-04-10T11:12:33.483Z,34
2016-04-10T11:13:31.314Z,34
2016-04-10T11:14:29.050Z,34
2016-04-10T11:15:26.803Z,35
2016-04-10T11:16:24.836Z,35
2016-04-10T11:18:21.139Z,35
2016-04-10T11:19:19.563Z,35
2016-04-10T11:20:17.754Z,35
2016-04-10T11:21:18.787Z,35
2016-04-10T11:22:17.055Z,35
2016-04-10T11:23:15.340Z,35
2016-04-10T11:24:13.733Z,35
2016-04-10T11:25:11.893Z,35
2016-04-10T11:26:10.176Z,35
2016-04-10T11:27:08.569Z,35
2016-04-10T11:28:06.853Z,35
2016-04-10T11:29:05.059Z,35
2016-04-10T11:30:03.468Z,36
2016-04-10T11:31:04.486Z,36
2016-04-10T11:32:02.895Z,36
2016-04-10T11:33:01.413Z,36
2016-04-10T11:34:00.228Z,36
2016-04-10T11:34:58.981Z,36
2016-04-10T11:35:57.781Z,36
2016-04-10T11:36:56.564Z,37
2016-04-10T11:37:55.599Z,37
2016-04-10T11:38:54.633Z,37
2016-04-10T11:39:53.729Z,38
2016-04-10T11:40:54.904Z,38
2016-04-10T11:41:54.031Z,37
2016-04-10T11:42:53.331Z,37
2016-04-10T11:43:52.739Z,37
2016-04-10T11:44:51.914Z,38
2016-04-10T11:45:51.558Z,38
2016-04-10T11:46:51.014Z,39
2016-04-10T11:47:50.798Z,39
2016-04-10T11:48:50.863Z,39
2016-04-10T11:49:50.475Z,39
2016-04-10T11:50:51.478Z,39
2016-04-10T11:51:51.543Z,40
2016-04-10T11:52:51.858Z,40
2016-04-10T11:53:52.157Z,40
2016-04-10T11:54:52.473Z,40
2016-04-10T11:55:52.944Z,40
2016-04-10T11:56:53.087Z,40
2016-04-10T11:57:53.637Z,40
2016-04-10T11:58:54.327Z,41
2016-04-10T11:59:55.079Z,41
2016-04-10T12:00:56.098Z,41
2016-04-10T12:01:56.898Z,41
2016-04-10T12:02:58.010Z,42
2016-04-10T12:03:59.326Z,42
2016-04-10T12:05:00.625Z,43
2016-04-10T12:05:58.503Z,43
2016-04-10T12:06:56.176Z,43
2016-04-10T12:07:54.320Z,43
2016-04-10T12:08:52.229Z,44
2016-04-10T12:09:50.575Z,44
2016-04-10T12:10:51.594Z,44
2016-04-10T12:11:50.111Z,45
2016-04-10T12:12:49.021Z,45
2016-04-10T12:13:47.820Z,45
2016-04-10T12:14:46.494Z,45
2016-04-10T12:15:45.530Z,45
2016-04-10T12:16:44.703Z,45
2016-04-10T12:17:43.738Z,45
2016-04-10T12:18:42.694Z,45
2016-04-10T12:19:41.758Z,46
2016-04-10T12:20:42.777Z,46
2016-04-10T12:21:42.076Z,46
2016-04-10T12:22:41.361Z,46
2016-04-10T12:23:40.785Z,46
2016-04-10T12:24:39.991Z,46
2016-04-10T12:25:39.260Z,46
2016-04-10T12:26:38.541Z,46
2016-04-10T12:27:37.841Z,46
2016-04-10T12:28:37.140Z,46
2016-04-10T12:29:36.736Z,46
2016-04-10T12:30:37.771Z,46
2016-04-10T12:31:37.304Z,46
2016-04-10T12:32:36.869Z,46
2016-04-10T12:33:36.418Z,46
2016-04-10T12:34:36.078Z,47
2016-04-10T12:35:35.767Z,47
2016-04-10T12:36:35.567Z,47
2016-04-10T12:37:35.398Z,47
2016-04-10T12:38:35.181Z,47
2016-04-10T12:39:35.028Z,47
2016-04-10T12:40:36.156Z,47
2016-04-10T12:41:35.862Z,47
2016-04-10T12:43:35.961Z,47
2016-04-10T12:44:36.026Z,48
2016-04-10T12:45:36.341Z,48
2016-04-10T12:46:36.641Z,48
2016-04-10T12:47:36.956Z,48
2016-04-10T12:48:37.271Z,48
2016-04-10T12:49:37.633Z,48
2016-04-10T12:50:38.791Z,48
2016-04-10T12:51:38.966Z,48
2016-04-10T12:52:39.660Z,48
2016-04-10T12:53:40.100Z,48
2016-04-10T12:54:40.806Z,48
2016-04-10T12:55:41.355Z,48
2016-04-10T12:56:41.796Z,49
2016-04-10T12:57:42.611Z,49
2016-04-10T12:58:43.441Z,49
2016-04-10T12:59:44.319Z,49
2016-04-10T13:00:45.321Z,49
2016-04-10T13:01:46.153Z,49
2016-04-10T13:02:46.968Z,49
2016-04-10T13:03:47.908Z,49
2016-04-10T13:04:48.802Z,49
2016-04-10T13:05:49.429Z,49
2016-04-10T13:06:50.260Z,49
2016-04-10T13:07:51.060Z,49
2016-04-10T13:08:52.140Z,49
2016-04-10T13:09:53.440Z,49
2016-04-10T13:10:54.270Z,49
2016-04-10T13:11:55.351Z,49
2016-04-10T13:12:56.417Z,49
2016-04-10T13:13:57.498Z,49
2016-04-10T13:14:58.563Z,49
2016-04-10T13:15:59.769Z,49
2016-04-10T13:17:00.849Z,50
2016-04-10T13:18:02.039Z,50
2016-04-10T13:19:03.370Z,50
2016-04-10T13:20:04.748Z,50
2016-04-10T13:21:05.783Z,50
2016-04-10T13:22:07.097Z,50
2016-04-10T13:23:08.444Z,50
2016-04-10T13:24:09.758Z,50
2016-04-10T13:25:11.090Z,50
2016-04-10T13:26:12.405Z,50
2016-04-10T13:27:13.735Z,50
2016-04-10T13:28:15.066Z,50
2016-04-10T13:29:16.396Z,50
2016-04-10T13:30:17.774Z,50
2016-04-10T13:31:18.793Z,50
2016-04-10T13:32:20.248Z,50
2016-04-10T13:33:21.454Z,50
2016-04-10T13:34:22.785Z,50
2016-04-10T13:35:24.226Z,50
2016-04-10T13:36:25.557Z,50
2016-04-10T13:37:26.762Z,50
2016-04-10T13:38:28.093Z,50
2016-04-10T13:39:29.408Z,50
2016-04-10T13:40:31.051Z,50
2016-04-10T13:41:32.070Z,50
2016-04-10T13:42:33.401Z,50
2016-04-10T13:43:34.731Z,50
2016-04-10T13:44:36.313Z,50
2016-04-10T13:45:37.894Z,50
2016-04-10T13:46:39.478Z,50
2016-04-10T13:47:41.058Z,50
2016-04-10T13:48:42.639Z,50
2016-04-10T13:49:44.219Z,50
2016-04-10T13:50:45.878Z,51
2016-04-10T13:51:46.881Z,51
2016-04-10T13:52:44.649Z,51
2016-04-10T13:53:42.433Z,51
2016-04-10T13:54:40.326Z,51
2016-04-10T13:55:37.982Z,51
2016-04-10T13:56:35.766Z,51
2016-04-10T13:57:33.551Z,51
2016-04-10T13:58:31.334Z,51
2016-04-10T13:59:29.103Z,51
2016-04-10T14:00:26.965Z,51
2016-04-10T14:01:27.968Z,51
2016-04-10T14:02:25.752Z,51
2016-04-10T14:03:23.520Z,51
2016-04-10T14:04:21.429Z,51
2016-04-10T14:05:19.212Z,51
2016-04-10T14:06:16.871Z,51
2016-04-10T14:07:14.640Z,51
2016-04-10T14:08:12.424Z,51
2016-04-10T14:09:10.317Z,51
2016-04-10T14:10:08.054Z,51
2016-04-10T14:11:09.197Z,51